Time;durP1;ratioP1;P1;durP2;ratioP2;P2;SDS_P1;SDS_P2;PMS_P1;PMS_P2;Temp;Humidity;BMP_temperature;BMP_pressure;BME280_temperature;BME280_humidity;BME280_pressure;Samples;Min_cycle;Max_cycle;Signal;HPM_P1;HPM_P2
2023/02/25 00:00:18;;;;;;;25.98;14.35;;;;;;;-0.23;66.96;97984.34;5052567;28;20966;-59
2023/02/25 00:02:48;;;;;;;25.65;14.75;;;;;;;-0.24;66.84;97980.03;5052992;28;20055;-61
2023/02/25 00:05:16;;;;;;;23.30;13.65;;;;;;;-0.25;66.82;97972.22;5035682;28;20040;-61
2023/02/25 00:07:41;;;;;;;29.05;14.77;;;;;;;-0.27;67.02;97974.13;5052515;28;20025;-58
2023/02/25 00:10:10;;;;;;;26.20;14.65;;;;;;;-0.22;67.12;97970.25;5052866;28;20044;-60
2023/02/25 00:12:36;;;;;;;24.60;14.20;;;;;;;-0.19;67.40;97967.41;5052905;28;20029;-57
2023/02/25 00:15:03;;;;;;;28.63;15.10;;;;;;;-0.35;67.11;97935.16;5051746;28;20150;-56
2023/02/25 00:17:29;;;;;;;24.63;14.18;;;;;;;-0.22;67.17;97961.50;5050588;28;20082;-60
2023/02/25 00:19:56;;;;;;;28.70;15.15;;;;;;;-0.17;67.23;97956.75;5052552;28;20064;-61
2023/02/25 00:22:23;;;;;;;26.33;15.05;;;;;;;-0.16;67.41;97956.69;5052586;28;20033;-58
2023/02/25 00:24:52;;;;;;;27.95;14.60;;;;;;;-0.34;67.42;97926.34;5032573;28;20094;-59
2023/02/25 00:27:18;;;;;;;24.80;14.57;;;;;;;-0.14;66.97;97953.94;5032346;28;20057;-60
2023/02/25 00:29:43;;;;;;;25.67;14.52;;;;;;;-0.17;67.09;97955.00;5032523;28;20076;-60
2023/02/25 00:32:09;;;;;;;27.63;14.50;;;;;;;-0.37;67.28;97916.84;5031448;28;20466;-60
2023/02/25 00:34:34;;;;;;;26.05;14.68;;;;;;;-0.17;67.10;97949.72;5031685;28;20041;-63
2023/02/25 00:37:00;;;;;;;27.02;14.75;;;;;;;-0.15;67.22;97945.22;5031074;28;20046;-61
2023/02/25 00:39:40;;;;;;;26.65;14.10;;;;;;;-0.09;66.70;97941.34;5049765;28;20117;-61
2023/02/25 00:42:09;;;;;;;26.30;14.07;;;;;;;-0.16;67.33;97933.00;5052020;28;20114;-58
2023/02/25 00:44:35;;;;;;;24.23;14.05;;;;;;;-0.15;67.21;97933.84;5049766;28;20029;-58
2023/02/25 00:47:02;;;;;;;28.85;14.50;;;;;;;-0.16;67.61;97929.50;5032351;28;20044;-59
2023/02/25 00:49:27;;;;;;;28.05;15.30;;;;;;;-0.12;67.54;97935.44;5031868;28;20513;-59
2023/02/25 00:51:54;;;;;;;27.42;14.50;;;;;;;-0.09;67.58;97929.94;5031895;28;20075;-60
2023/02/25 00:54:20;;;;;;;26.13;14.80;;;;;;;-0.25;67.30;97895.94;5032344;28;20436;-58
2023/02/25 00:56:46;;;;;;;25.73;14.30;;;;;;;-0.28;67.29;97886.47;5032371;28;20030;-57
2023/02/25 00:59:11;;;;;;;26.05;14.48;;;;;;;-0.06;67.74;97924.47;5031155;28;20491;-56
2023/02/25 01:01:37;;;;;;;23.60;12.93;;;;;;;-0.09;67.53;97914.16;5034754;28;20036;-60
2023/02/25 01:04:03;;;;;;;26.70;14.02;;;;;;;0.00;67.00;97921.47;5048801;28;20029;-63
2023/02/25 01:06:31;;;;;;;22.27;13.02;;;;;;;-0.01;67.04;97927.63;5051923;28;20032;-58
2023/02/25 01:08:58;;;;;;;21.88;12.70;;;;;;;-0.06;67.51;97912.19;5052214;28;20051;-57
2023/02/25 01:11:27;;;;;;;26.92;13.88;;;;;;;-0.06;67.65;97922.72;5051903;28;20083;-60
2023/02/25 01:14:06;;;;;;;25.15;13.57;;;;;;;0.02;67.71;97924.81;5051745;28;20428;-60
2023/02/25 01:16:33;;;;;;;23.08;13.15;;;;;;;-0.01;67.32;97925.00;5050529;28;20036;-59
2023/02/25 01:19:03;;;;;;;24.55;13.18;;;;;;;0.00;67.35;97913.56;5052193;28;20029;-60
2023/02/25 01:21:32;;;;;;;24.77;13.60;;;;;;;-0.03;68.00;97905.84;5051674;28;20033;-59
2023/02/25 01:24:22;;;;;;;23.13;13.18;;;;;;;0.05;67.67;97914.09;5039728;28;20041;-58
2023/02/25 01:26:49;;;;;;;21.63;12.63;;;;;;;-0.02;67.50;97910.16;5044778;28;20033;-59
2023/02/25 01:29:21;;;;;;;21.80;12.57;;;;;;;0.06;67.94;97915.78;5052266;28;20074;-57
2023/02/25 01:31:50;;;;;;;21.17;12.85;;;;;;;0.05;67.87;97906.19;5051001;28;20111;-56
2023/02/25 01:34:17;;;;;;;22.77;13.25;;;;;;;0.05;67.60;97900.94;5052071;28;20037;-53
2023/02/25 01:36:43;;;;;;;22.35;12.55;;;;;;;0.07;67.76;97896.41;5051833;28;20048;-58
2023/02/25 01:39:10;;;;;;;18.05;11.65;;;;;;;0.06;67.57;97892.09;5051697;28;20062;-62
2023/02/25 01:41:36;;;;;;;20.88;12.85;;;;;;;0.10;67.75;97904.09;5050950;28;20036;-58
2023/02/25 01:44:17;;;;;;;20.02;11.95;;;;;;;0.16;67.74;97902.81;5037414;28;20033;-58
2023/02/25 01:46:44;;;;;;;19.10;11.95;;;;;;;0.14;67.35;97895.03;5033742;28;20045;-58
2023/02/25 01:49:35;;;;;;;20.35;12.32;;;;;;;0.17;67.52;97899.25;5018018;28;20033;-59
2023/02/25 01:52:03;;;;;;;21.23;12.38;;;;;;;0.12;67.66;97893.44;5034966;28;20093;-62
2023/02/25 01:54:30;;;;;;;22.15;12.63;;;;;;;0.15;67.39;97906.41;5035438;28;20026;-57
2023/02/25 01:56:56;;;;;;;21.85;12.48;;;;;;;0.16;67.75;97891.44;5035460;28;20040;-62
2023/02/25 01:59:25;;;;;;;21.52;12.90;;;;;;;0.16;67.87;97899.34;5035211;28;20450;-61
2023/02/25 02:01:51;;;;;;;20.80;11.85;;;;;;;0.13;67.36;97895.97;5034197;28;20042;-61
2023/02/25 02:04:18;;;;;;;20.13;11.95;;;;;;;0.09;67.85;97881.34;5035488;28;20033;-60
2023/02/25 02:06:47;;;;;;;21.10;12.55;;;;;;;0.10;67.92;97890.06;5034413;28;20076;-58
2023/02/25 02:09:16;;;;;;;19.10;12.20;;;;;;;0.21;67.68;97887.56;5035049;28;20040;-62
2023/02/25 02:11:42;;;;;;;22.17;12.32;;;;;;;0.18;67.95;97887.75;5034721;28;20044;-62
2023/02/25 02:14:11;;;;;;;19.35;11.55;;;;;;;0.20;68.12;97885.88;5042305;28;20653;-59
2023/02/25 02:16:46;;;;;;;22.35;13.32;;;;;;;0.20;67.98;97879.75;5055071;28;20518;-61
2023/02/25 02:19:24;;;;;;;19.43;11.90;;;;;;;0.25;67.62;97875.03;5054631;28;20041;-61
2023/02/25 02:21:59;;;;;;;19.60;10.95;;;;;;;0.27;67.65;97879.22;5048085;28;20112;-60
2023/02/25 02:24:34;;;;;;;18.88;11.05;;;;;;;0.24;67.82;97873.31;5054407;28;20455;-60
2023/02/25 02:27:04;;;;;;;18.27;11.75;;;;;;;0.27;67.43;97876.59;5053329;28;20127;-61
2023/02/25 02:29:54;;;;;;;20.33;11.88;;;;;;;0.26;67.58;97876.72;5054467;28;20040;-57
2023/02/25 02:33:02;;;;;;;21.40;11.60;;;;;;;0.27;67.72;97857.34;5054507;28;20470;-56
2023/02/25 02:35:37;;;;;;;17.73;11.05;;;;;;;0.23;68.04;97863.75;5033661;28;20041;-58
2023/02/25 02:38:11;;;;;;;;;;;;;;;0.49;66.72;97845.28;5034584;28;20471;-54
2023/02/25 02:40:50;;;;;;;19.58;11.32;;;;;;;0.34;67.26;97852.47;5034377;28;19916;-58
2023/02/25 02:43:34;;;;;;;18.05;10.18;;;;;;;0.40;66.74;97852.06;5034078;28;20037;-57
2023/02/25 02:46:10;;;;;;;22.95;12.63;;;;;;;0.27;67.71;97852.06;5032991;28;20041;-60
2023/02/25 02:48:46;;;;;;;18.15;11.88;;;;;;;0.07;67.95;97830.63;5034413;28;20029;-62
2023/02/25 02:51:26;;;;;;;20.95;12.10;;;;;;;0.24;68.46;97863.66;5033866;28;20065;-59
2023/02/25 02:53:55;;;;;;;19.23;11.45;;;;;;;0.26;67.73;97860.91;5043314;28;20196;-60
2023/02/25 02:56:23;;;;;;;18.90;11.60;;;;;;;0.23;68.65;97858.47;5053301;28;20033;-59
2023/02/25 02:59:05;;;;;;;20.08;12.60;;;;;;;0.23;68.25;97858.47;5038147;28;20036;-60
2023/02/25 03:01:40;;;;;;;20.50;12.23;;;;;;;0.30;68.38;97853.63;5033570;28;20345;-60
2023/02/25 03:04:13;;;;;;;19.17;11.57;;;;;;;0.13;68.33;97814.38;5033370;28;20025;-58
2023/02/25 03:06:42;;;;;;;21.80;11.77;;;;;;;0.30;68.44;97845.72;5033930;28;20368;-58
2023/02/25 03:09:18;;;;;;;19.48;12.25;;;;;;;0.35;68.04;97838.34;5034497;28;20112;-56
2023/02/25 03:11:44;;;;;;;17.30;11.35;;;;;;;0.34;68.19;97853.31;5033799;28;20033;-61
2023/02/25 03:14:13;;;;;;;19.42;11.85;;;;;;;0.41;68.17;97851.09;5046393;28;20090;-59
2023/02/25 03:16:49;;;;;;;20.35;11.77;;;;;;;0.45;67.94;97838.53;5053616;28;20057;-55
2023/02/25 03:19:20;;;;;;;21.15;11.75;;;;;;;0.48;67.78;97849.69;5052138;28;20037;-56
2023/02/25 03:22:00;;;;;;;19.20;12.05;;;;;;;0.52;68.04;97845.91;5045690;28;20917;-55
2023/02/25 03:24:34;;;;;;;16.30;11.20;;;;;;;0.52;67.77;97830.09;5032475;28;20032;-63
2023/02/25 03:27:14;;;;;;;19.48;11.63;;;;;;;0.56;67.22;97834.19;5033252;28;20038;-59
2023/02/25 03:29:39;;;;;;;16.92;10.95;;;;;;;0.60;67.22;97832.19;5033525;28;20021;-58
2023/02/25 03:32:11;;;;;;;18.42;10.73;;;;;;;0.60;66.85;97823.44;5033687;28;20112;-58
2023/02/25 03:34:42;;;;;;;18.10;10.63;;;;;;;0.41;66.97;97795.81;5051667;28;20036;-61
2023/02/25 03:37:27;;;;;;;16.73;10.70;;;;;;;0.65;67.18;97832.69;5050918;28;20067;-60
2023/02/25 03:39:57;;;;;;;17.48;11.10;;;;;;;0.66;67.22;97834.38;5053516;28;20245;-61
2023/02/25 03:42:30;;;;;;;19.90;11.13;;;;;;;0.66;66.87;97831.75;5053515;28;20041;-55
2023/02/25 03:44:59;;;;;;;16.63;10.57;;;;;;;0.64;67.09;97833.63;5052033;28;20028;-60
2023/02/25 03:47:28;;;;;;;15.70;10.45;;;;;;;0.62;67.25;97832.91;5051785;28;20399;-58
2023/02/25 03:50:05;;;;;;;17.05;10.98;;;;;;;0.68;67.22;97837.72;5053255;28;20108;-59
2023/02/25 03:52:31;;;;;;;17.85;11.00;;;;;;;0.67;66.90;97836.06;5048681;28;20475;-59
2023/02/25 03:54:58;;;;;;;17.10;10.55;;;;;;;0.69;66.99;97822.78;5032854;28;20029;-58
2023/02/25 03:57:33;;;;;;;17.73;10.73;;;;;;;0.68;67.13;97821.94;5031989;28;20091;-59
2023/02/25 03:59:58;;;;;;;;;;;;;;;1.01;66.51;97822.22;5032870;28;20052;-60
2023/02/25 04:02:31;;;;;;;18.75;10.63;;;;;;;0.83;66.67;97816.50;5032833;28;20302;-59
2023/02/25 04:04:56;;;;;;;19.80;10.73;;;;;;;0.59;66.79;97783.09;5033046;28;20103;-57
2023/02/25 04:07:22;;;;;;;16.17;10.95;;;;;;;0.80;66.92;97822.00;5032344;28;20076;-56
2023/02/25 04:09:47;;;;;;;17.55;10.75;;;;;;;0.81;66.95;97823.69;5038732;28;20032;-59
2023/02/25 04:12:14;;;;;;;17.83;11.35;;;;;;;0.85;66.83;97818.09;5049897;28;20525;-59
2023/02/25 04:14:39;;;;;;;16.55;10.63;;;;;;;0.62;66.90;97772.34;5015118;28;20400;-61
2023/02/25 04:17:05;;;;;;;19.02;10.73;;;;;;;0.80;67.20;97816.75;5030814;28;20056;-59
2023/02/25 04:19:31;;;;;;;20.95;11.80;;;;;;;0.79;67.51;97812.44;5031470;28;20034;-59
2023/02/25 04:21:57;;;;;;;20.05;11.45;;;;;;;0.88;67.08;97816.19;5032456;28;20033;-58
2023/02/25 04:24:22;;;;;;;17.52;11.90;;;;;;;0.84;67.30;97812.91;5032499;28;20097;-56
2023/02/25 04:26:48;;;;;;;17.13;11.40;;;;;;;0.83;67.51;97811.25;5032107;28;20070;-57
2023/02/25 04:29:13;;;;;;;18.42;11.05;;;;;;;0.82;67.26;97809.56;5032295;28;20034;-59
2023/02/25 04:31:39;;;;;;;18.30;11.82;;;;;;;0.97;67.18;97819.00;5032083;28;20025;-61
2023/02/25 04:34:05;;;;;;;21.83;11.13;;;;;;;1.03;66.85;97822.13;5049638;28;20043;-58
2023/02/25 04:36:32;;;;;;;16.77;11.10;;;;;;;1.01;67.16;97822.22;5050915;28;20044;-62
2023/02/25 04:39:01;;;;;;;18.05;11.13;;;;;;;1.02;67.22;97808.09;5051880;28;20094;-61
2023/02/25 04:41:29;;;;;;;20.50;11.35;;;;;;;1.03;67.28;97809.75;5050400;28;20036;-61
2023/02/25 04:43:55;;;;;;;17.90;11.43;;;;;;;1.06;67.31;97816.63;5052418;28;20135;-60
2023/02/25 04:46:20;;;;;;;17.80;10.98;;;;;;;1.10;67.14;97823.34;5052073;28;20036;-60
2023/02/25 04:48:46;;;;;;;20.50;10.77;;;;;;;1.11;67.23;97817.13;5052104;28;20025;-57
2023/02/25 04:51:11;;;;;;;18.67;10.88;;;;;;;1.19;67.01;97819.19;5052091;28;20104;-57
2023/02/25 04:53:36;;;;;;;17.92;11.02;;;;;;;1.18;67.07;97831.50;5035268;28;20034;-58
2023/02/25 04:56:07;;;;;;;16.70;10.90;;;;;;;1.23;67.21;97825.91;5033566;28;20031;-59
2023/02/25 04:58:34;;;;;;;20.60;11.20;;;;;;;1.24;67.14;97824.94;5051105;28;20521;-58
2023/02/25 05:01:00;;;;;;;15.98;10.50;;;;;;;1.28;66.68;97826.41;5051335;28;20033;-58
2023/02/25 05:03:28;;;;;;;20.00;10.85;;;;;;;1.24;67.19;97825.81;5052007;28;20064;-60
2023/02/25 05:05:54;;;;;;;15.38;10.48;;;;;;;1.28;67.09;97832.53;5051677;28;20079;-58
2023/02/25 05:08:20;;;;;;;19.15;10.85;;;;;;;1.31;67.18;97827.97;5051935;28;20424;-57
2023/02/25 05:10:46;;;;;;;19.85;11.13;;;;;;;1.37;66.77;97835.41;5050218;28;20064;-58
2023/02/25 05:13:11;;;;;;;18.23;10.75;;;;;;;1.40;67.50;97832.53;5031682;28;20068;-58
2023/02/25 05:15:37;;;;;;;18.00;10.52;;;;;;;1.41;67.05;97827.16;5031909;28;20406;-58
2023/02/25 05:18:03;;;;;;;19.08;10.13;;;;;;;1.42;67.06;97831.50;5032321;28;20029;-63
2023/02/25 05:20:28;;;;;;;16.15;11.10;;;;;;;1.43;67.26;97829.69;5038788;28;20032;-62
2023/02/25 05:22:54;;;;;;;17.40;10.68;;;;;;;1.45;66.96;97822.53;5054696;28;20379;-58
2023/02/25 05:25:19;;;;;;;17.85;9.82;;;;;;;1.50;67.36;97825.63;5054688;28;20359;-61
2023/02/25 05:27:45;;;;;;;18.90;10.25;;;;;;;1.52;67.43;97833.41;5055976;28;20094;-59
2023/02/25 05:30:11;;;;;;;16.58;9.70;;;;;;;1.54;67.09;97837.63;5055787;28;20032;-60
2023/02/25 05:32:37;;;;;;;16.33;10.57;;;;;;;1.63;67.03;97832.59;5035685;28;20040;-57
2023/02/25 05:35:04;;;;;;;15.93;10.07;;;;;;;1.64;67.35;97843.06;5034751;28;20037;-57
2023/02/25 05:37:31;;;;;;;16.90;11.00;;;;;;;1.68;67.15;97833.94;5035912;28;20456;-59
2023/02/25 05:39:57;;;;;;;15.93;9.98;;;;;;;1.70;66.79;97837.31;5048091;28;20049;-61
2023/02/25 05:42:23;;;;;;;16.85;10.45;;;;;;;1.72;67.01;97834.56;5055003;28;20435;-59
2023/02/25 05:44:48;;;;;;;16.52;10.25;;;;;;;1.75;67.64;97842.25;5052489;28;20036;-59
2023/02/25 05:47:14;;;;;;;16.20;10.20;;;;;;;1.82;67.14;97842.63;5054468;28;20158;-54
2023/02/25 05:49:41;;;;;;;18.17;10.68;;;;;;;1.86;67.19;97851.97;5055185;28;20456;-59
2023/02/25 05:52:07;;;;;;;16.98;10.73;;;;;;;1.88;67.31;97854.47;5038599;28;20060;-62
2023/02/25 05:54:33;;;;;;;16.05;10.18;;;;;;;1.90;67.39;97842.84;5034585;28;20060;-59
2023/02/25 05:56:58;;;;;;;18.48;10.75;;;;;;;1.88;67.37;97831.59;5035350;28;20030;-59
2023/02/25 05:59:24;;;;;;;18.50;10.07;;;;;;;1.99;67.49;97836.03;5035147;28;20610;-62
2023/02/25 06:01:49;;;;;;;17.33;9.93;;;;;;;2.10;67.09;97828.09;5033910;28;20033;-58
2023/02/25 06:04:15;;;;;;;15.27;9.85;;;;;;;2.24;66.92;97844.69;5034694;28;20088;-59
2023/02/25 06:06:40;;;;;;;18.33;9.77;;;;;;;2.35;66.57;97841.19;5038608;28;20490;-60
2023/02/25 06:09:08;;;;;;;18.08;10.63;;;;;;;2.44;66.22;97846.59;5055036;28;20029;-60
2023/02/25 06:11:34;;;;;;;14.23;9.38;;;;;;;2.54;65.62;97856.44;5041576;28;20103;-57
2023/02/25 06:13:59;;;;;;;14.00;9.18;;;;;;;2.51;65.18;97856.69;5034783;28;20033;-61
2023/02/25 06:16:31;;;;;;;18.65;9.43;;;;;;;2.42;65.95;97850.31;5034845;28;20064;-61
2023/02/25 06:19:00;;;;;;;15.70;10.10;;;;;;;2.40;65.68;97841.66;5034939;28;20037;-60
2023/02/25 06:21:26;;;;;;;20.17;9.65;;;;;;;2.38;65.93;97841.78;5033739;28;20037;-60
2023/02/25 06:23:52;;;;;;;15.35;9.07;;;;;;;2.46;65.85;97848.28;5034773;28;20103;-61
2023/02/25 06:26:18;;;;;;;15.15;9.50;;;;;;;2.55;65.94;97847.53;5034711;28;20038;-61
2023/02/25 06:28:44;;;;;;;17.15;9.85;;;;;;;2.65;64.92;97859.06;5033431;28;20087;-59
2023/02/25 06:31:13;;;;;;;21.08;9.60;;;;;;;2.68;65.44;97858.81;5044945;28;20192;-61
2023/02/25 06:33:39;;;;;;;15.27;9.45;;;;;;;2.71;65.32;97840.06;5054456;28;20032;-63
2023/02/25 06:36:05;;;;;;;17.35;9.27;;;;;;;2.66;65.29;97830.84;5054277;28;20119;-58
2023/02/25 06:38:32;;;;;;;16.30;10.00;;;;;;;2.77;64.96;97846.66;5054609;28;20068;-58
2023/02/25 06:40:58;;;;;;;14.65;9.63;;;;;;;2.83;64.75;97847.97;5054186;28;20051;-61
2023/02/25 06:43:23;;;;;;;18.20;9.55;;;;;;;2.75;64.76;97813.41;5054060;28;20032;-59
2023/02/25 06:45:49;;;;;;;17.80;9.25;;;;;;;2.81;64.29;97820.81;5053973;28;20112;-58
2023/02/25 06:48:14;;;;;;;16.38;9.90;;;;;;;2.98;64.55;97825.59;5054234;28;20090;-59
2023/02/25 06:50:42;;;;;;;16.48;9.68;;;;;;;3.13;63.91;97841.13;5044570;28;20045;-59
2023/02/25 06:53:08;;;;;;;17.20;9.32;;;;;;;2.99;63.79;97827.25;5016551;28;20033;-63
2023/02/25 06:55:33;;;;;;;16.15;10.18;;;;;;;3.08;63.82;97838.03;5049338;28;20111;-59
2023/02/25 06:57:59;;;;;;;17.88;10.00;;;;;;;2.92;63.72;97817.31;5053900;28;20371;-58
2023/02/25 07:00:24;;;;;;;15.45;9.52;;;;;;;3.08;64.02;97856.56;5053641;28;20032;-57
2023/02/25 07:02:50;;;;;;;14.30;8.85;;;;;;;3.03;64.35;97856.09;5052906;28;20074;-60
2023/02/25 07:05:15;;;;;;;13.65;8.52;;;;;;;3.05;64.06;97857.66;5053136;28;20116;-59
2023/02/25 07:07:41;;;;;;;15.77;8.93;;;;;;;3.09;64.07;97851.16;5052864;28;20111;-57
2023/02/25 07:10:09;;;;;;;11.40;7.85;;;;;;;2.93;64.00;97819.84;5048157;28;20030;-59
2023/02/25 07:12:34;;;;;;;12.50;8.00;;;;;;;3.10;63.68;97849.31;5034552;28;20033;-59
2023/02/25 07:14:59;;;;;;;13.30;8.30;;;;;;;3.15;64.65;97848.00;5032992;28;20132;-61
2023/02/25 07:17:25;;;;;;;14.57;8.65;;;;;;;3.28;63.54;97857.59;5033576;28;20029;-62
2023/02/25 07:19:50;;;;;;;14.68;8.68;;;;;;;3.32;63.58;97840.50;5050226;28;20470;-61
2023/02/25 07:22:17;;;;;;;13.02;8.30;;;;;;;3.42;63.28;97845.84;5053990;28;20363;-56
2023/02/25 07:24:43;;;;;;;17.33;8.95;;;;;;;3.55;63.17;97854.44;5036194;28;20513;-57
2023/02/25 07:27:12;;;;;;;19.67;9.18;;;;;;;3.71;62.56;97858.47;5053762;28;20397;-62
2023/02/25 07:29:38;;;;;;;15.20;8.75;;;;;;;3.88;62.72;97857.03;5049852;28;20021;-57
2023/02/25 07:32:03;;;;;;;11.45;8.27;;;;;;;4.05;61.93;97847.63;5033886;28;20056;-59
2023/02/25 07:34:29;;;;;;;14.05;8.35;;;;;;;4.18;61.23;97846.59;5033740;28;20052;-57
2023/02/25 07:36:54;;;;;;;16.25;8.13;;;;;;;4.26;61.00;97854.72;5033298;28;20095;-60
2023/02/25 07:39:20;;;;;;;13.07;8.32;;;;;;;4.38;60.68;97858.97;5033193;28;20037;-59
2023/02/25 07:41:47;;;;;;;15.55;8.48;;;;;;;4.42;60.64;97870.13;5033496;28;20113;-59
2023/02/25 07:44:12;;;;;;;13.15;7.53;;;;;;;4.34;61.25;97860.22;5052381;28;20037;-59
2023/02/25 07:46:38;;;;;;;11.35;8.25;;;;;;;4.24;61.53;97852.22;5053171;28;20037;-62
2023/02/25 07:49:03;;;;;;;10.27;7.90;;;;;;;4.29;61.81;97859.75;5051265;28;20025;-63
2023/02/25 07:51:29;;;;;;;11.13;8.13;;;;;;;4.28;62.04;97858.91;5034937;28;20483;-62
2023/02/25 07:53:56;;;;;;;14.38;8.10;;;;;;;4.37;62.34;97867.88;5034374;28;20032;-64
2023/02/25 07:56:23;;;;;;;12.32;7.80;;;;;;;4.47;62.33;97867.06;5032352;28;20418;-64
2023/02/25 07:58:48;;;;;;;9.23;7.32;;;;;;;4.54;61.72;97865.56;5032164;28;20440;-61
2023/02/25 08:01:24;;;;;;;12.60;8.23;;;;;;;4.64;62.09;97861.16;5032133;28;20061;-59
2023/02/25 08:03:51;;;;;;;13.00;7.90;;;;;;;4.67;61.15;97863.53;5031771;28;20037;-63
2023/02/25 08:06:16;;;;;;;14.25;8.23;;;;;;;4.76;61.59;97874.28;5037728;28;20143;-60
2023/02/25 08:08:42;;;;;;;16.05;8.15;;;;;;;4.79;61.32;97880.16;5042249;28;20120;-62
2023/02/25 08:11:10;;;;;;;12.10;8.23;;;;;;;4.74;62.12;97869.13;5032801;28;20395;-60
2023/02/25 08:13:36;;;;;;;11.18;7.53;;;;;;;4.67;61.97;97875.94;5032736;28;20030;-62
2023/02/25 08:16:05;;;;;;;13.40;8.25;;;;;;;4.57;62.80;97860.84;5043052;28;20143;-61
2023/02/25 08:18:31;;;;;;;13.68;7.65;;;;;;;4.60;62.36;97867.69;5052600;28;20089;-62
2023/02/25 08:20:57;;;;;;;11.07;7.38;;;;;;;4.57;62.70;97862.63;5052693;28;20116;-61
2023/02/25 08:23:24;;;;;;;17.27;7.72;;;;;;;4.63;62.52;97885.97;5052540;28;20108;-61
2023/02/25 08:25:56;;;;;;;12.35;7.88;;;;;;;4.62;63.25;97875.50;5051832;28;20047;-61
2023/02/25 08:28:23;;;;;;;16.15;8.30;;;;;;;4.62;63.27;97881.66;5044193;28;20042;-62
2023/02/25 08:30:49;;;;;;;11.82;7.90;;;;;;;4.60;63.03;97871.16;5032178;28;20116;-63
2023/02/25 08:33:15;;;;;;;15.30;7.72;;;;;;;4.54;63.21;97876.16;5032216;28;20036;-63
2023/02/25 08:35:41;;;;;;;11.80;8.43;;;;;;;4.55;63.61;97875.19;5032660;28;20073;-62
2023/02/25 08:38:08;;;;;;;11.85;7.70;;;;;;;4.47;62.99;97872.38;5031205;28;20497;-63
2023/02/25 08:40:33;;;;;;;14.15;7.85;;;;;;;4.44;63.33;97887.56;5032121;28;20664;-61
2023/02/25 08:42:59;;;;;;;13.13;7.40;;;;;;;4.42;63.13;97889.50;5032561;28;20444;-63
2023/02/25 08:45:24;;;;;;;10.60;6.72;;;;;;;4.33;63.85;97887.63;5032515;28;20041;-62
2023/02/25 08:47:50;;;;;;;12.18;7.05;;;;;;;4.24;63.79;97877.84;5034894;28;20156;-59
2023/02/25 08:50:16;;;;;;;8.40;6.25;;;;;;;4.23;63.84;97884.97;5052535;28;20044;-60
2023/02/25 08:52:43;;;;;;;13.20;6.80;;;;;;;4.21;63.97;97883.41;5041263;28;20099;-61
2023/02/25 08:55:13;;;;;;;17.10;6.90;;;;;;;4.25;63.80;97880.38;5031388;28;20033;-62
2023/02/25 08:57:39;;;;;;;9.57;7.10;;;;;;;4.28;63.80;97874.81;5032145;28;20114;-61
2023/02/25 09:00:06;;;;;;;10.85;7.47;;;;;;;4.33;63.97;97869.09;5032392;28;20766;-61
2023/02/25 09:02:31;;;;;;;12.45;7.60;;;;;;;4.38;63.87;97864.25;5030804;28;20048;-58
2023/02/25 09:04:57;;;;;;;11.10;6.85;;;;;;;4.50;63.26;97880.06;5031780;28;20432;-61
2023/02/25 09:07:22;;;;;;;12.65;7.63;;;;;;;4.46;63.18;97871.53;5031152;28;20100;-61
2023/02/25 09:09:47;;;;;;;12.50;7.15;;;;;;;4.48;64.17;97872.25;5038014;28;20027;-64
2023/02/25 09:12:13;;;;;;;12.88;7.65;;;;;;;4.53;64.58;97874.47;5052195;28;20037;-62
2023/02/25 09:14:38;;;;;;;10.52;7.20;;;;;;;4.60;63.83;97878.28;5051803;28;20108;-61
2023/02/25 09:17:06;;;;;;;11.75;6.57;;;;;;;4.60;63.48;97879.13;5052084;28;20040;-62
2023/02/25 09:19:32;;;;;;;10.90;6.88;;;;;;;4.62;63.85;97884.31;5034473;28;20030;-64
2023/02/25 09:21:58;;;;;;;10.35;7.00;;;;;;;4.63;64.28;97877.16;5031658;28;20042;-60
2023/02/25 09:24:23;;;;;;;11.30;7.35;;;;;;;4.63;64.09;97883.31;5031976;28;20033;-61
2023/02/25 09:26:49;;;;;;;12.95;6.90;;;;;;;4.64;65.04;97878.84;5032082;28;20025;-63
2023/02/25 09:29:15;;;;;;;12.27;6.93;;;;;;;4.47;64.55;97846.72;5035305;28;20036;-61
2023/02/25 09:31:41;;;;;;;11.13;6.55;;;;;;;4.68;64.83;97881.09;5050352;28;20033;-61
2023/02/25 09:34:09;;;;;;;16.50;6.50;;;;;;;4.80;64.21;97884.50;5051342;28;20048;-62
2023/02/25 09:36:35;;;;;;;9.23;6.55;;;;;;;4.83;64.06;97884.22;5050468;28;20545;-63
2023/02/25 09:39:01;;;;;;;8.68;6.18;;;;;;;4.85;63.73;97881.44;5051700;28;20033;-61
2023/02/25 09:41:48;;;;;;;8.05;5.75;;;;;;;4.84;63.24;97875.28;5048537;28;20371;-61
2023/02/25 09:44:21;;;;;;;12.18;5.40;;;;;;;4.77;63.21;97874.16;5031707;28;20041;-61
2023/02/25 09:47:00;;;;;;;7.30;5.18;;;;;;;4.69;63.82;97872.19;5032968;28;20444;-59
2023/02/25 09:49:35;;;;;;;7.93;5.55;;;;;;;4.67;64.33;97870.63;5038103;28;20036;-60
2023/02/25 09:52:25;;;;;;;;;;;;;;;4.97;64.32;97871.56;5051704;28;20499;-61
2023/02/25 09:55:06;;;;;;;7.55;5.10;;;;;;;4.90;64.19;97876.56;5050346;28;20009;-61
2023/02/25 09:57:40;;;;;;;11.65;5.78;;;;;;;4.81;63.30;97880.00;5051783;28;20037;-59
2023/02/25 10:00:17;;;;;;;12.88;5.43;;;;;;;4.71;63.38;97870.22;5034342;28;20079;-61
2023/02/25 10:02:51;;;;;;;11.45;5.78;;;;;;;4.79;63.85;97876.66;5030454;28;20033;-61
2023/02/25 10:05:38;;;;;;;9.52;5.18;;;;;;;4.86;62.76;97877.81;5030703;28;20044;-60
2023/02/25 10:08:37;;;;;;;6.90;5.13;;;;;;;4.99;63.10;97873.09;5033255;28;20116;-62
2023/02/25 10:11:08;;;;;;;9.10;5.65;;;;;;;4.96;63.52;97868.06;5034941;28;20076;-59
2023/02/25 10:13:57;;;;;;;10.98;5.53;;;;;;;5.08;62.78;97878.56;5043313;28;20109;-62
2023/02/25 10:16:53;;;;;;;13.20;5.82;;;;;;;5.09;62.55;97877.59;5054475;28;20039;-59
2023/02/25 10:19:30;;;;;;;10.00;5.40;;;;;;;5.15;62.11;97879.69;5042748;28;20045;-61
2023/02/25 10:22:21;;;;;;;14.63;5.78;;;;;;;5.17;62.42;97870.59;5034511;28;20072;-63
2023/02/25 10:24:56;;;;;;;13.32;6.15;;;;;;;5.11;62.37;97876.44;5034828;28;20456;-60
2023/02/25 10:27:22;;;;;;;;;;;;;;;5.47;62.54;97873.28;5034589;28;20034;-61
2023/02/25 10:29:49;;;;;;;;;;;;;;;5.62;61.03;97878.16;5035509;28;20367;-62
2023/02/25 10:32:24;;;;;;;7.93;5.25;;;;;;;5.36;62.02;97874.25;5033292;28;19913;-60
2023/02/25 10:34:58;;;;;;;19.42;6.22;;;;;;;5.38;61.87;97888.22;5035553;28;20030;-62
2023/02/25 10:37:31;;;;;;;7.38;5.75;;;;;;;5.35;61.60;97883.19;5054409;28;20356;-62
2023/02/25 10:39:59;;;;;;;7.43;5.13;;;;;;;5.21;61.96;97863.19;5034883;28;20084;-58
2023/02/25 10:42:25;;;;;;;9.77;5.40;;;;;;;5.25;61.61;97885.81;5034050;28;20075;-63
2023/02/25 10:44:52;;;;;;;9.50;5.28;;;;;;;5.16;61.70;97884.00;5034685;28;20052;-64
2023/02/25 10:47:33;;;;;;;8.73;6.00;;;;;;;4.98;62.34;97850.19;5033522;28;20057;-62
2023/02/25 10:50:22;;;;;;;11.15;5.80;;;;;;;5.18;62.72;97876.75;5033902;28;20437;-58
2023/02/25 10:53:03;;;;;;;11.10;6.22;;;;;;;5.13;62.22;97881.63;5034448;28;20029;-62
2023/02/25 10:55:50;;;;;;;8.68;6.15;;;;;;;5.16;63.26;97886.66;5034386;28;20045;-62
2023/02/25 10:58:24;;;;;;;6.40;5.43;;;;;;;5.19;62.68;97877.59;5040090;28;20044;-63
2023/02/25 11:01:18;;;;;;;8.68;6.05;;;;;;;5.24;62.92;97885.97;5053770;28;20090;-61
2023/02/25 11:03:52;;;;;;;9.80;5.70;;;;;;;5.31;62.35;97895.06;5053229;28;20029;-63
2023/02/25 11:06:23;;;;;;;10.25;5.80;;;;;;;5.33;62.18;97895.75;5052085;28;20381;-61
2023/02/25 11:08:50;;;;;;;9.93;6.00;;;;;;;5.24;61.95;97889.47;5053930;28;20035;-61
2023/02/25 11:11:17;;;;;;;8.32;5.47;;;;;;;5.21;61.78;97899.53;5052694;28;20071;-59
2023/02/25 11:13:43;;;;;;;8.15;5.70;;;;;;;5.10;61.92;97892.53;5053690;28;20040;-61
2023/02/25 11:16:12;;;;;;;10.82;5.80;;;;;;;5.14;62.32;97891.28;5053761;28;20372;-60
2023/02/25 11:18:39;;;;;;;6.60;5.22;;;;;;;5.09;63.08;97877.59;5043940;28;20065;-62
2023/02/25 11:21:09;;;;;;;7.63;5.32;;;;;;;5.10;62.63;97897.81;5033690;28;20038;-62
2023/02/25 11:23:40;;;;;;;6.47;5.13;;;;;;;5.02;63.43;97899.31;5033947;28;20140;-59
2023/02/25 11:26:07;;;;;;;11.98;5.95;;;;;;;4.96;63.55;97897.22;5047311;28;20436;-60
2023/02/25 11:28:35;;;;;;;6.70;4.97;;;;;;;4.98;63.76;97900.56;5053251;28;20079;-60
2023/02/25 11:31:06;;;;;;;14.15;5.50;;;;;;;4.89;63.34;97882.84;5053227;28;20059;-60
2023/02/25 11:33:34;;;;;;;6.80;4.85;;;;;;;4.98;63.07;97886.50;5053631;28;20043;-61
2023/02/25 11:36:01;;;;;;;6.82;5.03;;;;;;;4.98;62.80;97870.59;5051100;28;20045;-58
2023/02/25 11:38:31;;;;;;;8.10;4.80;;;;;;;5.12;62.84;97877.31;5053425;28;20044;-60
2023/02/25 11:40:57;;;;;;;6.07;5.10;;;;;;;5.16;62.30;97884.84;5053212;28;20024;-58